createdAt,value
2022-09-07T00:01:23.137Z,101696.55
2022-09-07T00:03:56.506Z,101692.53
2022-09-07T00:06:25.375Z,101695.29
2022-09-07T00:08:54.187Z,101695.42
2022-09-07T00:11:23.012Z,101696.89
2022-09-07T00:13:51.767Z,101691.89
2022-09-07T00:16:25.015Z,101684.00
2022-09-07T00:18:57.301Z,101682.42
2022-09-07T00:21:27.091Z,101676.29
2022-09-07T00:23:56.608Z,101681.91
2022-09-07T00:26:29.166Z,101680.14
2022-09-07T00:29:00.667Z,101679.98
2022-09-07T00:31:31.511Z,101679.78
2022-09-07T00:34:03.106Z,101673.35
2022-09-07T00:36:31.768Z,101675.91
2022-09-07T00:39:00.366Z,101677.64
2022-09-07T00:41:29.381Z,101673.90
2022-09-07T00:44:37.662Z,101674.02
2022-09-07T00:47:19.723Z,101671.08
2022-09-07T00:49:57.426Z,101670.38
2022-09-07T00:52:29.617Z,101668.23
2022-09-07T00:55:04.042Z,101669.52
2022-09-07T00:57:34.337Z,101669.36
2022-09-07T01:00:05.362Z,101667.66
2022-09-07T01:02:34.235Z,101669.08
2022-09-07T01:05:16.429Z,101667.16
2022-09-07T01:07:46.290Z,101666.17
2022-09-07T01:10:15.637Z,101670.13
2022-09-07T01:12:44.351Z,101667.79
2022-09-07T01:15:13.349Z,101666.88
2022-09-07T01:17:47.911Z,101663.28
2022-09-07T01:20:36.904Z,101658.56
2022-09-07T01:24:22.998Z,101657.75
2022-09-07T01:27:09.001Z,101658.22
2022-09-07T01:30:09.515Z,101656.73
2022-09-07T01:33:09.664Z,101659.45
2022-09-07T01:35:48.434Z,101657.42
2022-09-07T01:38:35.800Z,101651.45
2022-09-07T01:41:45.199Z,101653.04
2022-09-07T01:44:32.857Z,101651.77
2022-09-07T01:47:42.611Z,101656.31
2022-09-07T01:50:28.809Z,101657.80
2022-09-07T01:53:15.738Z,101659.77
2022-09-07T01:55:57.352Z,101661.38
2022-09-07T01:58:25.932Z,101661.83
2022-09-07T02:01:11.502Z,101660.23
2022-09-07T02:03:53.316Z,101658.43
2022-09-07T02:06:47.477Z,101660.37
2022-09-07T02:09:37.502Z,101656.83
2022-09-07T02:12:22.168Z,101650.94
2022-09-07T02:14:59.973Z,101646.73
2022-09-07T02:17:39.940Z,101646.52
2022-09-07T02:20:32.338Z,101644.08
2022-09-07T02:23:07.023Z,101643.23
2022-09-07T02:25:46.301Z,101637.22
2022-09-07T02:28:21.563Z,101639.34
2022-09-07T02:30:50.476Z,101636.98
2022-09-07T02:33:19.462Z,101638.27
2022-09-07T02:35:48.708Z,101637.02
2022-09-07T02:38:18.020Z,101630.10
2022-09-07T02:41:00.149Z,101635.50
2022-09-07T02:43:31.697Z,101635.25
2022-09-07T02:46:33.623Z,101638.11
2022-09-07T02:49:24.053Z,101635.27
2022-09-07T02:52:20.017Z,101635.80
2022-09-07T02:55:21.382Z,101629.16
2022-09-07T02:59:00.991Z,101630.87
2022-09-07T03:02:00.548Z,101634.81
2022-09-07T03:04:48.501Z,101637.67
2022-09-07T03:07:36.245Z,101636.59
2022-09-07T03:10:09.766Z,101630.98
2022-09-07T03:12:48.624Z,101634.22
2022-09-07T03:15:22.359Z,101634.80
2022-09-07T03:17:52.044Z,101629.91
2022-09-07T03:20:24.302Z,101630.20
2022-09-07T03:22:53.173Z,101626.43
2022-09-07T03:25:23.247Z,101629.41
2022-09-07T03:27:51.967Z,101629.36
2022-09-07T03:30:21.089Z,101634.74
2022-09-07T03:32:49.869Z,101635.51
2022-09-07T03:35:19.050Z,101632.42
2022-09-07T03:37:47.782Z,101635.46
2022-09-07T03:40:17.185Z,101629.76
2022-09-07T03:42:52.647Z,101633.02
2022-09-07T03:45:21.344Z,101633.48
2022-09-07T03:47:51.516Z,101631.05
2022-09-07T03:50:20.221Z,101630.70
2022-09-07T03:52:49.006Z,101629.11
2022-09-07T03:55:17.860Z,101626.73
2022-09-07T03:57:46.531Z,101634.40
2022-09-07T04:00:15.375Z,101636.04
2022-09-07T04:02:44.263Z,101635.75
2022-09-07T04:05:13.312Z,101638.29
2022-09-07T04:07:41.960Z,101638.28
2022-09-07T04:10:11.006Z,101637.41
2022-09-07T04:12:40.073Z,101641.48
2022-09-07T04:15:09.509Z,101637.83
2022-09-07T04:17:38.807Z,101633.49
2022-09-07T04:20:08.982Z,101630.64
2022-09-07T04:22:37.599Z,101633.05
2022-09-07T04:25:06.509Z,101633.52
2022-09-07T04:27:35.172Z,101634.56
2022-09-07T04:30:04.084Z,101632.21
2022-09-07T04:32:32.867Z,101632.39
2022-09-07T04:35:01.569Z,101634.33
2022-09-07T04:37:30.576Z,101629.01
2022-09-07T04:39:59.350Z,101637.43
2022-09-07T04:42:28.147Z,101632.62
2022-09-07T04:44:57.353Z,101630.58
2022-09-07T04:47:26.246Z,101627.13
2022-09-07T04:49:55.000Z,101630.66
2022-09-07T04:52:25.974Z,101632.73
2022-09-07T04:54:54.658Z,101630.04
2022-09-07T04:57:26.125Z,101631.88
2022-09-07T04:59:55.307Z,101635.63
2022-09-07T05:02:24.135Z,101632.01
2022-09-07T05:04:53.083Z,101632.50
2022-09-07T05:07:21.735Z,101627.57
2022-09-07T05:09:50.483Z,101626.11
2022-09-07T05:12:19.278Z,101626.59
2022-09-07T05:14:47.911Z,101622.83
2022-09-07T05:17:16.700Z,101621.00
2022-09-07T05:19:45.593Z,101617.69
2022-09-07T05:22:14.456Z,101617.09
2022-09-07T05:24:43.086Z,101614.88
2022-09-07T05:27:11.918Z,101616.97
2022-09-07T05:32:29.508Z,101618.63
2022-09-07T05:34:58.272Z,101618.67
2022-09-07T05:37:26.923Z,101623.50
2022-09-07T05:39:57.337Z,101623.89
2022-09-07T05:42:26.361Z,101627.95
2022-09-07T05:44:55.049Z,101626.46
2022-09-07T05:47:24.719Z,101626.20
2022-09-07T05:49:57.045Z,101622.89
2022-09-07T05:52:26.144Z,101617.06
2022-09-07T05:55:07.524Z,101620.34
2022-09-07T05:57:44.383Z,101616.89
2022-09-07T06:00:14.689Z,101617.42
2022-09-07T06:02:43.579Z,101621.75
2022-09-07T06:05:12.465Z,101619.28
2022-09-07T06:07:41.306Z,101618.95
2022-09-07T06:12:58.956Z,101621.67
2022-09-07T06:15:27.661Z,101621.69
2022-09-07T06:17:56.336Z,101625.29
2022-09-07T06:20:25.031Z,101617.20
2022-09-07T06:22:53.682Z,101616.95
2022-09-07T06:25:22.393Z,101614.32
2022-09-07T06:27:52.016Z,101620.97
2022-09-07T06:30:21.811Z,101619.34
2022-09-07T06:32:50.586Z,101622.08
2022-09-07T06:35:19.286Z,101625.36
2022-09-07T06:37:47.922Z,101626.52
2022-09-07T06:40:16.964Z,101625.00
2022-09-07T06:42:45.658Z,101622.77
2022-09-07T06:45:17.322Z,101621.52
2022-09-07T06:47:46.062Z,101614.86
2022-09-07T06:50:16.055Z,101613.75
2022-09-07T06:55:33.388Z,101607.94
2022-09-07T06:58:02.105Z,101610.11
2022-09-07T07:00:30.871Z,101605.56
2022-09-07T07:02:59.607Z,101607.55
2022-09-07T07:05:28.843Z,101607.66
2022-09-07T07:07:58.334Z,101607.81
2022-09-07T07:10:27.097Z,101608.64
2022-09-07T07:12:58.766Z,101613.71
2022-09-07T07:15:30.815Z,101613.21
2022-09-07T07:18:13.415Z,101611.77
2022-09-07T07:20:48.627Z,101611.66
2022-09-07T07:23:17.407Z,101615.51
2022-09-07T07:25:46.208Z,101618.80
2022-09-07T07:31:10.428Z,101616.96
2022-09-07T07:33:41.830Z,101619.45
2022-09-07T07:36:24.336Z,101611.92
2022-09-07T07:38:58.858Z,101607.30
2022-09-07T07:44:21.134Z,101605.16
2022-09-07T07:46:51.637Z,101602.80
2022-09-07T07:49:20.526Z,101601.52
2022-09-07T07:54:38.051Z,101592.69
2022-09-07T07:57:06.745Z,101597.85
2022-09-07T07:59:36.191Z,101596.02
2022-09-07T08:02:07.370Z,101594.48
2022-09-07T08:04:37.135Z,101593.55
2022-09-07T08:07:10.489Z,101594.55
2022-09-07T08:09:43.365Z,101588.45
2022-09-07T08:12:19.198Z,101583.77
2022-09-07T08:14:49.033Z,101586.04
2022-09-07T08:17:18.069Z,101587.80
2022-09-07T08:19:46.847Z,101592.29
2022-09-07T08:22:15.780Z,101598.09
2022-09-07T08:24:44.626Z,101592.77
2022-09-07T08:27:13.789Z,101590.80
2022-09-07T08:29:43.341Z,101590.84
2022-09-07T08:32:12.108Z,101596.10
2022-09-07T08:34:40.923Z,101592.09
2022-09-07T08:37:09.842Z,101586.95
2022-09-07T08:39:39.343Z,101583.06
2022-09-07T08:42:08.231Z,101577.74
2022-09-07T08:44:51.440Z,101573.13
2022-09-07T08:47:41.748Z,101565.98
2022-09-07T08:50:52.576Z,101554.39
2022-09-07T08:53:25.325Z,101557.88
2022-09-07T08:56:10.033Z,101553.94
2022-09-07T08:58:53.581Z,101543.36
2022-09-07T09:01:31.037Z,101538.91
2022-09-07T09:04:18.181Z,101538.45
2022-09-07T09:07:31.193Z,101536.69
2022-09-07T09:10:35.000Z,101536.62
2022-09-07T09:13:27.049Z,101529.36
2022-09-07T09:16:43.473Z,101529.55
2022-09-07T09:19:39.804Z,101533.67
2022-09-07T09:22:25.929Z,101528.09
2022-09-07T09:25:16.125Z,101522.23
2022-09-07T09:27:44.937Z,101521.17
2022-09-07T09:30:17.623Z,101520.15
2022-09-07T09:32:48.050Z,101520.02
2022-09-07T09:35:36.837Z,101517.75
2022-09-07T09:38:06.178Z,101517.05
2022-09-07T09:40:38.290Z,101512.80
2022-09-07T09:43:20.177Z,101509.01
2022-09-07T09:48:42.394Z,101511.58
2022-09-07T09:54:20.394Z,101506.25
2022-09-07T09:56:49.944Z,101501.81
2022-09-07T10:05:30.845Z,101488.84
2022-09-07T10:07:59.670Z,101487.02
2022-09-07T10:10:29.845Z,101491.76
2022-09-07T10:12:58.937Z,101491.00
2022-09-07T10:15:40.387Z,101490.60
2022-09-07T10:18:37.994Z,101491.45
2022-09-07T10:21:30.673Z,101495.13
2022-09-07T10:24:07.981Z,101488.64
2022-09-07T10:26:39.531Z,101488.94
2022-09-07T10:29:19.540Z,101489.54
2022-09-07T10:32:16.299Z,101481.94
2022-09-07T10:35:28.734Z,101481.99
2022-09-07T10:38:28.904Z,101477.72
2022-09-07T10:41:07.758Z,101480.62
2022-09-07T10:43:37.275Z,101477.00
2022-09-07T10:49:27.856Z,101472.16
2022-09-07T10:52:33.330Z,101468.91
2022-09-07T10:55:20.892Z,101471.52
2022-09-07T10:59:01.504Z,101465.45
2022-09-07T11:01:36.759Z,101457.23
2022-09-07T11:04:44.947Z,101454.39
2022-09-07T11:07:34.799Z,101453.75
2022-09-07T11:10:43.395Z,101450.71
2022-09-07T11:13:18.358Z,101446.44
2022-09-07T11:15:58.950Z,101442.67
2022-09-07T11:22:28.810Z,101432.05
2022-09-07T11:28:21.544Z,101430.63
2022-09-07T11:31:00.330Z,101425.87
2022-09-07T11:34:23.793Z,101418.79
2022-09-07T11:36:50.291Z,101420.16
2022-09-07T11:39:41.149Z,101427.41
2022-09-07T11:45:27.827Z,101429.90
2022-09-07T11:48:21.807Z,101426.31
2022-09-07T11:51:10.945Z,101421.61
2022-09-07T11:53:48.725Z,101419.73
2022-09-07T11:56:57.816Z,101415.29
2022-09-07T11:59:43.019Z,101409.77
2022-09-07T12:02:42.066Z,101408.89
2022-09-07T12:05:25.407Z,101402.23
2022-09-07T12:08:16.272Z,101399.42
2022-09-07T12:11:08.023Z,101397.09
2022-09-07T12:14:36.117Z,101390.36
2022-09-07T12:17:46.128Z,101387.75
2022-09-07T12:20:22.349Z,101383.36
2022-09-07T12:23:21.272Z,101377.34
2022-09-07T12:25:52.022Z,101371.05
2022-09-07T12:28:23.611Z,101363.17
2022-09-07T12:31:12.805Z,101363.38
2022-09-07T12:33:41.618Z,101348.72
2022-09-07T12:36:32.433Z,101349.49
2022-09-07T12:39:29.159Z,101349.77
2022-09-07T12:45:29.594Z,101347.33
2022-09-07T12:48:10.717Z,101351.29
2022-09-07T12:51:59.589Z,101347.72
2022-09-07T12:54:38.205Z,101339.60
2022-09-07T12:57:49.869Z,101345.52
2022-09-07T13:00:33.328Z,101341.89
2022-09-07T13:03:52.500Z,101342.10
2022-09-07T13:07:02.526Z,101348.73
2022-09-07T13:09:38.403Z,101343.64
2022-09-07T13:15:52.257Z,101334.27
2022-09-07T13:18:27.634Z,101333.21
2022-09-07T13:21:09.538Z,101329.79
2022-09-07T13:23:45.511Z,101330.58
2022-09-07T13:27:08.765Z,101328.17
2022-09-07T13:29:50.735Z,101325.21
2022-09-07T13:35:25.775Z,101314.98
2022-09-07T13:38:04.016Z,101315.66
2022-09-07T13:40:42.252Z,101311.85
2022-09-07T13:43:24.239Z,101312.40
2022-09-07T13:45:56.152Z,101311.78
2022-09-07T13:48:49.430Z,101308.15
2022-09-07T13:51:49.716Z,101306.66
2022-09-07T13:55:03.727Z,101308.34
2022-09-07T13:58:01.918Z,101308.38
2022-09-07T14:00:31.459Z,101307.92
2022-09-07T14:03:07.695Z,101310.73
2022-09-07T14:05:36.519Z,101310.14
2022-09-07T14:08:05.418Z,101310.39
2022-09-07T14:10:34.065Z,101307.72
2022-09-07T14:13:11.703Z,101309.48
2022-09-07T14:15:49.179Z,101306.06
2022-09-07T14:18:31.831Z,101306.28
2022-09-07T14:21:03.099Z,101303.69
2022-09-07T14:23:35.845Z,101304.09
2022-09-07T14:26:23.523Z,101301.11
2022-09-07T14:28:57.091Z,101294.79
2022-09-07T14:31:27.157Z,101289.50
2022-09-07T14:33:59.564Z,101287.13
2022-09-07T14:36:45.817Z,101286.83
2022-09-07T14:39:18.873Z,101285.33
2022-09-07T14:41:51.349Z,101279.52
2022-09-07T14:44:43.324Z,101280.59
2022-09-07T14:47:29.656Z,101279.45
2022-09-07T14:50:06.472Z,101283.38
2022-09-07T14:53:33.518Z,101285.17
2022-09-07T14:55:44.793Z,101282.04
2022-09-07T14:58:16.669Z,101277.92
2022-09-07T15:01:37.094Z,101273.94
2022-09-07T15:03:41.579Z,101272.61
2022-09-07T15:07:01.016Z,101266.42
2022-09-07T15:09:01.565Z,101262.50
2022-09-07T15:11:36.736Z,101260.01
2022-09-07T15:14:08.951Z,101268.48
2022-09-07T15:16:45.106Z,101268.30
2022-09-07T15:19:16.814Z,101265.96
2022-09-07T15:21:46.350Z,101262.94
2022-09-07T15:24:16.418Z,101263.95
2022-09-07T15:27:05.226Z,101266.63
2022-09-07T15:29:34.023Z,101274.64
2022-09-07T15:32:05.173Z,101270.14
2022-09-07T15:34:36.613Z,101267.52
2022-09-07T15:38:01.095Z,101263.90
2022-09-07T15:39:54.217Z,101257.61
2022-09-07T15:45:12.451Z,101259.18
2022-09-07T15:47:47.040Z,101260.33
2022-09-07T15:50:19.615Z,101264.19
2022-09-07T15:52:48.389Z,101263.96
2022-09-07T15:55:19.731Z,101258.94
2022-09-07T15:57:51.257Z,101254.78
2022-09-07T16:00:21.766Z,101254.03
2022-09-07T16:03:07.389Z,101253.79
2022-09-07T16:05:44.400Z,101255.36
2022-09-07T16:11:23.982Z,101247.82
2022-09-07T16:14:01.831Z,101245.59
2022-09-07T16:19:21.585Z,101245.50
2022-09-07T16:21:50.234Z,101247.27
2022-09-07T16:24:19.262Z,101248.67
2022-09-07T16:26:47.901Z,101249.98
2022-09-07T16:29:17.654Z,101248.36
2022-09-07T16:34:35.542Z,101257.82
2022-09-07T16:37:04.447Z,101255.48
2022-09-07T16:39:34.147Z,101251.02
2022-09-07T16:42:03.463Z,101250.76
2022-09-07T16:44:34.638Z,101253.77
2022-09-07T16:47:04.591Z,101254.77
2022-09-07T16:49:33.255Z,101254.50
2022-09-07T16:52:24.089Z,101255.52
2022-09-07T16:54:59.659Z,101257.98
2022-09-07T16:58:35.397Z,101260.55
2022-09-07T17:00:17.875Z,101259.56
2022-09-07T17:02:46.555Z,101262.52
2022-09-07T17:05:15.734Z,101263.28
2022-09-07T17:07:44.385Z,101259.35
2022-09-07T17:10:13.228Z,101261.55
2022-09-07T17:12:41.856Z,101267.52
2022-09-07T17:15:11.127Z,101267.80
2022-09-07T17:17:40.438Z,101272.23
2022-09-07T17:20:09.937Z,101272.90
2022-09-07T17:22:38.559Z,101272.91
2022-09-07T17:25:08.915Z,101276.14
2022-09-07T17:27:37.927Z,101277.13
2022-09-07T17:30:07.866Z,101284.21
2022-09-07T17:32:36.472Z,101286.67
2022-09-07T17:35:14.441Z,101290.00
2022-09-07T17:37:48.132Z,101297.64
2022-09-07T17:40:17.166Z,101293.91
2022-09-07T17:45:34.745Z,101291.96
2022-09-07T17:48:03.554Z,101296.57
2022-09-07T17:50:32.220Z,101303.33
2022-09-07T17:53:00.855Z,101304.86
2022-09-07T17:55:31.768Z,101301.35
2022-09-07T17:58:04.782Z,101299.20
2022-09-07T18:00:34.783Z,101299.53
2022-09-07T18:03:03.792Z,101298.69
2022-09-07T18:05:33.925Z,101294.15
2022-09-07T18:08:02.912Z,101296.71
2022-09-07T18:13:36.307Z,101281.42
2022-09-07T18:16:43.720Z,101301.14
2022-09-07T18:19:20.965Z,101301.26
2022-09-07T18:21:51.926Z,101302.83
2022-09-07T18:24:30.744Z,101307.84
2022-09-07T18:26:59.427Z,101306.38
2022-09-07T18:29:32.938Z,101313.10
2022-09-07T18:32:08.702Z,101311.73
2022-09-07T18:34:41.420Z,101308.59
2022-09-07T18:37:22.535Z,101308.67
2022-09-07T18:40:04.321Z,101311.34
2022-09-07T18:42:35.114Z,101316.52
2022-09-07T18:47:52.916Z,101316.92
2022-09-07T18:50:23.578Z,101317.57
2022-09-07T18:52:52.815Z,101311.94
2022-09-07T18:55:22.044Z,101310.60
2022-09-07T18:57:50.605Z,101305.95
2022-09-07T19:00:22.361Z,101304.70
2022-09-07T19:02:51.519Z,101303.45
2022-09-07T19:08:08.904Z,101308.16
2022-09-07T19:10:38.505Z,101303.41
2022-09-07T19:13:07.234Z,101304.31
2022-09-07T19:15:37.646Z,101301.13
2022-09-07T19:18:08.505Z,101299.38
2022-09-07T19:20:37.542Z,101298.42
2022-09-07T19:23:06.823Z,101295.10
2022-09-07T19:25:41.257Z,101290.79
2022-09-07T19:28:09.819Z,101285.90
2022-09-07T19:30:38.407Z,101289.84
2022-09-07T19:33:10.260Z,101289.78
2022-09-07T19:35:38.895Z,101285.84
2022-09-07T19:38:07.565Z,101288.00
2022-09-07T19:40:36.193Z,101284.33
2022-09-07T19:43:05.337Z,101286.33
2022-09-07T19:45:39.840Z,101290.05
2022-09-07T19:48:08.441Z,101289.04
2022-09-07T19:50:37.123Z,101284.17
2022-09-07T19:53:06.304Z,101281.70
2022-09-07T19:55:34.915Z,101280.48
2022-09-07T19:58:03.517Z,101278.67
2022-09-07T20:00:32.219Z,101279.71
2022-09-07T20:03:01.043Z,101280.52
2022-09-07T20:05:31.385Z,101286.17
2022-09-07T20:08:00.061Z,101289.41
2022-09-07T20:10:30.429Z,101289.40
2022-09-07T20:12:59.199Z,101285.98
2022-09-07T20:15:28.071Z,101278.04
2022-09-07T20:17:56.767Z,101273.29
2022-09-07T20:20:25.717Z,101262.96
2022-09-07T20:22:54.572Z,101265.18
2022-09-07T20:25:23.536Z,101265.95
2022-09-07T20:27:52.340Z,101268.23
2022-09-07T20:30:24.615Z,101270.89
2022-09-07T20:32:53.610Z,101267.91
2022-09-07T20:35:22.393Z,101268.48
2022-09-07T20:37:51.107Z,101263.65
2022-09-07T20:40:20.387Z,101266.75
2022-09-07T20:42:49.096Z,101275.40
2022-09-07T20:45:18.305Z,101280.45
2022-09-07T20:47:47.027Z,101285.44
2022-09-07T20:50:15.718Z,101292.64
2022-09-07T20:52:44.329Z,101293.03
2022-09-07T20:55:12.938Z,101297.98
2022-09-07T20:57:41.627Z,101290.71
2022-09-07T21:00:10.707Z,101285.80
2022-09-07T21:02:39.471Z,101289.22
2022-09-07T21:05:08.585Z,101287.55
2022-09-07T21:07:41.210Z,101287.54
2022-09-07T21:10:10.321Z,101290.09
2022-09-07T21:12:39.159Z,101290.65
2022-09-07T21:15:09.327Z,101292.98
2022-09-07T21:17:39.054Z,101293.95
2022-09-07T21:20:07.971Z,101288.95
2022-09-07T21:22:36.550Z,101289.63
2022-09-07T21:25:05.755Z,101290.63
2022-09-07T21:27:38.803Z,101293.20
2022-09-07T21:30:09.221Z,101294.02
2022-09-07T21:32:38.044Z,101293.77
2022-09-07T21:35:08.174Z,101293.98
2022-09-07T21:37:39.522Z,101291.39
2022-09-07T21:40:09.265Z,101289.36
2022-09-07T21:42:38.902Z,101286.34
2022-09-07T21:45:09.456Z,101288.15
2022-09-07T21:47:40.872Z,101285.98
2022-09-07T21:50:09.619Z,101283.89
2022-09-07T21:52:39.126Z,101280.71
2022-09-07T21:55:08.718Z,101278.27
2022-09-07T21:57:37.337Z,101278.14
2022-09-07T22:00:09.226Z,101279.34
2022-09-07T22:02:37.911Z,101281.29
2022-09-07T22:05:06.791Z,101282.23
2022-09-07T22:07:35.413Z,101285.19
2022-09-07T22:10:04.250Z,101286.02
2022-09-07T22:12:32.831Z,101281.73
2022-09-07T22:15:01.504Z,101287.51
2022-09-07T22:17:30.198Z,101283.05
2022-09-07T22:19:58.825Z,101278.63
2022-09-07T22:22:27.793Z,101277.69
2022-09-07T22:24:56.422Z,101278.80
2022-09-07T22:27:25.103Z,101275.86
2022-09-07T22:29:53.679Z,101272.91
2022-09-07T22:32:23.011Z,101271.11
2022-09-07T22:34:51.975Z,101268.46
2022-09-07T22:37:20.610Z,101265.25
2022-09-07T22:39:49.240Z,101256.17
2022-09-07T22:42:17.962Z,101255.10
2022-09-07T22:44:46.637Z,101254.56
2022-09-07T22:47:15.902Z,101253.36
2022-09-07T22:49:44.489Z,101248.87
2022-09-07T22:52:13.180Z,101249.20
2022-09-07T22:54:41.807Z,101248.83
2022-09-07T22:57:10.558Z,101243.32
2022-09-07T22:59:39.318Z,101240.93
2022-09-07T23:02:08.010Z,101245.94
2022-09-07T23:04:36.743Z,101242.10
2022-09-07T23:07:07.882Z,101235.60
2022-09-07T23:09:36.526Z,101234.82
2022-09-07T23:12:05.291Z,101232.77
2022-09-07T23:14:34.049Z,101234.11
2022-09-07T23:17:02.740Z,101238.48
2022-09-07T23:19:31.402Z,101237.96
2022-09-07T23:22:01.021Z,101238.42
2022-09-07T23:24:29.679Z,101239.45
2022-09-07T23:26:58.308Z,101235.69
2022-09-07T23:29:27.048Z,101230.55
2022-09-07T23:31:55.833Z,101228.77
2022-09-07T23:34:24.482Z,101229.67
2022-09-07T23:36:53.131Z,101224.80
2022-09-07T23:39:21.921Z,101223.75
2022-09-07T23:41:50.800Z,101220.40
2022-09-07T23:44:19.402Z,101218.83
2022-09-07T23:46:48.136Z,101222.92
2022-09-07T23:49:16.945Z,101221.97
2022-09-07T23:51:45.625Z,101229.14
2022-09-07T23:54:14.197Z,101223.16
2022-09-07T23:56:42.883Z,101225.61
2022-09-07T23:59:12.045Z,101222.64
